Time;durP1;ratioP1;P1;durP2;ratioP2;P2;SDS_P1;SDS_P2;PMS_P1;PMS_P2;Temp;Humidity;BMP_temperature;BMP_pressure;BME280_temperature;BME280_humidity;BME280_pressure;Samples;Min_cycle;Max_cycle;Signal;HPM_P1;HPM_P2
2022/01/22 00:00:35;;;;;;;10.43;4.90;;;;;;;-2.79;81.82;97327.76;1738913;82;20948;-60
2022/01/22 00:03:02;;;;;;;8.70;4.87;;;;;;;-2.79;81.95;97322.52;1739970;81;21486;-60
2022/01/22 00:05:29;;;;;;;11.20;5.00;;;;;;;-2.80;81.85;97317.47;1749146;80;20980;-58
2022/01/22 00:07:56;;;;;;;8.88;5.05;;;;;;;-2.80;81.92;97318.28;1747648;81;20964;-59
2022/01/22 00:10:24;;;;;;;10.90;5.03;;;;;;;-2.80;81.86;97307.80;1738156;81;21858;-63
2022/01/22 00:15:20;;;;;;;11.35;5.67;;;;;;;-2.85;81.89;97301.11;1774787;80;20857;-63
2022/01/22 00:17:48;;;;;;;10.98;5.50;;;;;;;-2.84;81.99;97302.72;1778901;78;21451;-65
2022/01/22 00:20:18;;;;;;;10.15;5.20;;;;;;;-2.84;82.01;97306.65;1780399;80;20932;-60
2022/01/22 00:22:45;;;;;;;10.03;5.37;;;;;;;-2.84;82.01;97304.03;1776622;80;21111;-66
2022/01/22 00:25:13;;;;;;;8.73;4.80;;;;;;;-2.83;82.01;97311.38;1781290;80;20995;-60
2022/01/22 00:27:42;;;;;;;12.40;5.42;;;;;;;-2.82;82.06;97317.70;1781830;80;21431;-60
2022/01/22 00:30:15;;;;;;;11.18;5.75;;;;;;;-2.81;82.07;97312.77;1779297;80;20928;-61
2022/01/22 00:32:42;;;;;;;14.07;5.47;;;;;;;-2.80;82.15;97314.85;1779808;80;20920;-68
2022/01/22 00:35:11;;;;;;;11.25;5.30;;;;;;;-2.83;82.25;97312.16;1776822;80;21174;-65
2022/01/22 00:37:41;;;;;;;10.40;5.40;;;;;;;-2.85;82.51;97327.31;1775544;80;20866;-67
2022/01/22 00:40:10;;;;;;;9.88;5.12;;;;;;;-2.85;82.66;97323.91;1780394;80;20971;-62
2022/01/22 00:42:42;;;;;;;9.85;5.30;;;;;;;-2.87;82.79;97322.80;1779292;80;20940;-65
2022/01/22 00:45:10;;;;;;;9.65;5.50;;;;;;;-2.91;82.91;97316.41;1780402;80;21008;-60
2022/01/22 00:47:37;;;;;;;11.05;4.97;;;;;;;-2.90;83.00;97331.10;1778539;80;21130;-59
2022/01/22 00:50:06;;;;;;;11.45;5.22;;;;;;;-2.89;83.07;97319.61;1780534;78;20948;-62
2022/01/22 00:52:33;;;;;;;13.20;5.80;;;;;;;-2.91;83.18;97318.23;1781965;78;21014;-64
2022/01/22 00:55:00;;;;;;;12.47;5.92;;;;;;;-2.91;83.19;97321.66;1777586;80;21589;-62
2022/01/22 00:57:28;;;;;;;10.88;5.17;;;;;;;-2.91;83.13;97328.71;1779465;80;21009;-64
2022/01/22 00:59:57;;;;;;;9.10;5.45;;;;;;;-2.92;83.18;97323.20;1768573;80;20944;-59
2022/01/22 01:02:24;;;;;;;11.70;5.83;;;;;;;-2.94;83.14;97315.54;1774774;80;21502;-62
2022/01/22 01:04:51;;;;;;;11.85;5.58;;;;;;;-2.97;83.12;97312.58;1776565;80;20893;-63
2022/01/22 01:07:18;;;;;;;11.48;5.53;;;;;;;-2.99;83.17;97314.09;1769963;80;20881;-66
2022/01/22 01:09:45;;;;;;;10.23;6.15;;;;;;;-2.98;83.21;97317.52;1769701;81;21006;-65
2022/01/22 01:12:13;;;;;;;9.93;5.53;;;;;;;-2.96;83.25;97308.41;1752740;80;21178;-62
2022/01/22 01:15:06;;;;;;;10.18;5.47;;;;;;;-2.93;82.97;97311.91;1780910;80;20926;-59
2022/01/22 01:33:58;;;;;;;9.53;5.30;;;;;;;-3.01;82.89;97296.48;1721189;82;20076;-66
2022/01/22 01:36:19;;;;;;;10.88;5.42;;;;;;;-3.04;82.92;97282.50;1762362;80;21566;-66
2022/01/22 01:38:52;;;;;;;9.43;5.42;;;;;;;-3.03;83.02;97288.55;1769328;81;20977;-61
2022/01/22 01:41:24;;;;;;;7.60;5.12;;;;;;;-3.02;83.05;97300.14;1755352;80;20880;-65
2022/01/22 01:43:45;;;;;;;12.05;5.60;;;;;;;-3.03;83.08;97297.22;1735763;80;21009;-61
2022/01/22 01:46:33;;;;;;;9.50;5.10;;;;;;;-3.04;83.10;97297.45;1768758;80;21023;-63
2022/01/22 01:49:03;;;;;;;10.35;5.92;;;;;;;-3.03;83.21;97301.15;1780749;78;21423;-67
2022/01/22 01:51:32;;;;;;;8.50;4.85;;;;;;;-3.05;83.19;97314.98;1780632;80;21690;-61
2022/01/22 01:54:09;;;;;;;9.70;4.65;;;;;;;-3.07;83.32;97320.15;1778726;78;21400;-61
2022/01/22 01:59:15;;;;;;;11.28;5.15;;;;;;;-3.11;83.42;97326.33;1744043;80;27559;-66
2022/01/22 02:01:42;;;;;;;15.50;5.00;;;;;;;-3.09;83.40;97323.50;1737003;81;21578;-65
2022/01/22 02:04:12;;;;;;;12.20;5.40;;;;;;;-3.07;83.32;97317.53;1774746;80;21125;-65
2022/01/22 02:06:39;;;;;;;7.85;4.85;;;;;;;-3.05;83.18;97309.74;1778306;80;21152;-60
2022/01/22 02:09:08;;;;;;;9.48;4.78;;;;;;;-3.04;83.17;97304.77;1780930;79;21101;-66
2022/01/22 02:11:37;;;;;;;8.40;4.97;;;;;;;-3.05;83.06;97301.88;1782083;79;21514;-61
2022/01/22 02:25:21;;;;;;;6.53;4.58;;;;;;;-3.10;83.01;97300.43;1769738;80;20929;-65
2022/01/22 02:27:49;;;;;;;9.03;4.87;;;;;;;-3.12;83.05;97299.86;1760966;80;21372;-63
2022/01/22 02:30:21;;;;;;;8.83;4.70;;;;;;;-3.13;83.07;97289.08;1780436;80;21116;-59
2022/01/22 02:35:47;;;;;;;11.85;4.90;;;;;;;-3.14;83.07;97291.92;1750724;80;21431;-63
2022/01/22 02:38:13;;;;;;;8.43;4.35;;;;;;;-3.14;83.16;97290.11;1768046;80;21435;-62
2022/01/22 02:40:42;;;;;;;7.80;4.67;;;;;;;-3.12;83.06;97282.83;1740498;80;21487;-64
2022/01/22 02:43:04;;;;;;;7.80;4.08;;;;;;;-3.13;82.92;97283.83;1767103;80;21451;-61
2022/01/22 02:45:32;;;;;;;10.40;4.70;;;;;;;-3.13;82.82;97282.52;1772509;79;20901;-66
2022/01/22 02:47:59;;;;;;;7.90;4.75;;;;;;;-3.14;82.81;97288.80;1781005;80;20884;-63
2022/01/22 02:50:27;;;;;;;10.63;4.20;;;;;;;-3.16;82.82;97274.32;1774341;80;20945;-61
2022/01/22 02:52:54;;;;;;;9.13;4.80;;;;;;;-3.19;82.85;97284.73;1771807;80;21070;-67
2022/01/22 02:55:21;;;;;;;9.60;4.92;;;;;;;-3.19;82.90;97288.66;1776606;80;21079;-60
2022/01/22 02:57:48;;;;;;;7.90;4.50;;;;;;;-3.20;82.96;97290.97;1780654;80;20849;-59
2022/01/22 03:00:18;;;;;;;9.23;5.28;;;;;;;-3.21;83.00;97293.32;1780165;78;21074;-67
2022/01/22 03:02:47;;;;;;;7.87;4.90;;;;;;;-3.21;82.92;97291.20;1740985;81;20979;-61
2022/01/22 03:05:14;;;;;;;9.25;5.05;;;;;;;-3.23;82.96;97298.48;1769113;80;21023;-65
2022/01/22 03:07:44;;;;;;;9.50;4.20;;;;;;;-3.27;82.91;97295.48;1753568;81;21124;-60
2022/01/22 03:10:13;;;;;;;8.50;4.78;;;;;;;-3.27;83.04;97308.59;1717464;83;20916;-66
2022/01/22 03:28:01;;;;;;;6.80;4.30;;;;;;;-3.27;82.19;97303.34;1755392;81;21405;-63
2022/01/22 03:30:30;;;;;;;10.60;4.25;;;;;;;-3.27;82.05;97305.97;1752812;81;21031;-65
2022/01/22 03:32:57;;;;;;;9.58;3.92;;;;;;;-3.29;82.03;97300.16;1753088;81;21107;-66
2022/01/22 03:35:27;;;;;;;8.93;4.00;;;;;;;-3.28;81.73;97310.93;1767654;81;20924;-66
2022/01/22 03:37:56;;;;;;;8.83;4.00;;;;;;;-3.28;81.65;97312.23;1761176;81;20924;-63
2022/01/22 03:40:26;;;;;;;8.95;4.28;;;;;;;-3.30;81.80;97309.05;1736787;80;20999;-59
2022/01/22 03:42:53;;;;;;;7.30;4.10;;;;;;;-3.28;81.55;97305.69;1750958;80;20916;-60
2022/01/22 03:45:22;;;;;;;9.23;3.95;;;;;;;-3.30;81.42;97307.73;1748163;80;21104;-66
2022/01/22 03:47:49;;;;;;;8.30;4.42;;;;;;;-3.30;81.53;97308.23;1736789;80;21048;-65
2022/01/22 03:50:19;;;;;;;10.43;4.40;;;;;;;-3.28;81.62;97313.55;1713319;81;20945;-61
2022/01/22 03:52:46;;;;;;;10.63;4.40;;;;;;;-3.22;81.46;97305.30;1723088;81;21011;-64
2022/01/22 03:55:26;;;;;;;10.65;4.47;;;;;;;-3.19;81.35;97310.11;1746656;80;21459;-61
2022/01/22 03:58:01;;;;;;;7.87;3.40;;;;;;;-3.20;80.79;97316.39;1757174;81;21118;-65
2022/01/22 04:00:31;;;;;;;8.03;4.17;;;;;;;-3.25;80.82;97312.31;1778858;80;20889;-66
2022/01/22 04:05:27;;;;;;;9.05;4.35;;;;;;;-3.30;80.92;97310.86;1779530;80;20935;-68
2022/01/22 04:08:16;;;;;;;9.05;4.15;;;;;;;-3.28;80.88;97304.38;1780166;80;20995;-67
2022/01/22 04:10:42;;;;;;;7.50;3.90;;;;;;;-3.27;80.53;97312.52;1777215;80;21121;-67
2022/01/22 04:13:13;;;;;;;9.98;4.30;;;;;;;-3.32;80.61;97299.27;1758635;80;20857;-64
2022/01/22 04:15:38;;;;;;;9.10;4.67;;;;;;;-3.31;80.68;97295.64;1761132;80;20955;-62
2022/01/22 04:29:04;;;;;;;7.83;4.03;;;;;;;-3.34;79.76;97290.84;1766239;80;20939;-67
2022/01/22 04:31:31;;;;;;;10.55;4.85;;;;;;;-3.39;79.77;97280.75;1761976;80;21074;-62
2022/01/22 04:33:58;;;;;;;11.15;4.10;;;;;;;-3.42;79.69;97276.75;1777198;80;20932;-64
2022/01/22 04:36:25;;;;;;;9.53;4.05;;;;;;;-3.46;79.72;97280.80;1782200;80;21738;-65
2022/01/22 04:38:52;;;;;;;8.48;4.45;;;;;;;-3.47;79.75;97272.67;1777301;80;20884;-64
2022/01/22 04:41:21;;;;;;;9.68;3.62;;;;;;;-3.45;79.75;97275.87;1781684;80;21439;-64
2022/01/22 04:43:49;;;;;;;8.65;4.03;;;;;;;-3.46;79.78;97272.44;1785507;80;20896;-65
2022/01/22 04:46:36;;;;;;;11.43;3.85;;;;;;;-3.42;79.57;97274.13;1784796;80;20852;-63
2022/01/22 04:48:54;;;;;;;9.35;4.40;;;;;;;-3.39;79.45;97274.98;1742288;80;21151;-63
2022/01/22 04:56:53;;;;;;;11.60;4.47;;;;;;;-3.40;79.18;97278.63;1726832;81;21059;-65
2022/01/22 04:59:20;;;;;;;8.08;4.15;;;;;;;-3.39;79.20;97283.37;1765960;80;21316;-59
2022/01/22 05:01:47;;;;;;;10.90;3.95;;;;;;;-3.39;79.07;97281.53;1750025;80;21167;-65
2022/01/22 05:04:19;;;;;;;10.98;4.05;;;;;;;-3.41;79.05;97277.02;1691228;83;21080;-59
2022/01/22 05:06:54;;;;;;;7.42;4.05;;;;;;;-3.39;79.04;97286.77;1742079;81;21429;-65
2022/01/22 05:09:23;;;;;;;8.75;3.90;;;;;;;-3.37;79.00;97284.75;1744404;80;21612;-56
2022/01/22 05:11:57;;;;;;;9.73;4.62;;;;;;;-3.32;78.89;97283.56;1740648;81;21653;-60
2022/01/22 05:14:25;;;;;;;7.67;3.92;;;;;;;-3.30;78.57;97282.05;1749382;82;21171;-63
2022/01/22 05:16:55;;;;;;;7.47;3.83;;;;;;;-3.30;78.42;97291.22;1745847;81;20968;-63
2022/01/22 05:19:29;;;;;;;7.75;4.00;;;;;;;-3.31;78.37;97283.86;1717972;82;20913;-63
2022/01/22 05:21:56;;;;;;;9.68;4.17;;;;;;;-3.33;78.21;97272.81;1748068;80;20892;-65
2022/01/22 05:24:26;;;;;;;11.22;4.12;;;;;;;-3.34;78.45;97268.58;1744017;81;20897;-61
2022/01/22 05:32:49;;;;;;;7.83;4.55;;;;;;;-3.41;78.45;97267.86;1740579;81;20992;-61
2022/01/22 05:38:07;;;;;;;7.78;4.60;;;;;;;-3.45;78.64;97274.56;1744463;79;21490;-64
2022/01/22 05:40:35;;;;;;;11.45;4.87;;;;;;;-3.45;78.77;97261.47;1746824;80;21105;-66
2022/01/22 05:43:04;;;;;;;8.15;3.98;;;;;;;-3.47;78.78;97269.55;1747669;80;21038;-67
2022/01/22 05:45:31;;;;;;;8.88;4.78;;;;;;;-3.47;78.65;97273.98;1750618;79;21531;-61
2022/01/22 05:47:57;;;;;;;7.58;4.37;;;;;;;-3.49;78.84;97270.25;1743407;82;21078;-60
2022/01/22 05:50:33;;;;;;;8.25;4.62;;;;;;;-3.45;78.80;97268.02;1749278;81;20960;-65
2022/01/22 05:53:00;;;;;;;11.20;4.42;;;;;;;-3.46;78.57;97265.09;1742986;81;21701;-61
2022/01/22 06:00:48;;;;;;;10.28;4.33;;;;;;;-3.46;78.57;97267.71;1739256;80;22474;-65
2022/01/22 06:03:15;;;;;;;10.20;5.00;;;;;;;-3.49;78.58;97270.25;1742917;80;21038;-62
2022/01/22 06:05:42;;;;;;;12.18;4.78;;;;;;;-3.50;78.61;97269.17;1748247;81;21129;-65
2022/01/22 06:08:15;;;;;;;9.23;4.67;;;;;;;-3.50;78.65;97271.79;1742513;81;20992;-60
2022/01/22 06:10:40;;;;;;;12.63;4.40;;;;;;;-3.52;78.83;97264.67;1748881;80;20893;-65
2022/01/22 06:15:37;;;;;;;9.48;4.97;;;;;;;-3.53;79.60;97279.57;1726611;82;21007;-60
2022/01/22 06:18:12;;;;;;;9.85;4.97;;;;;;;-3.53;79.94;97287.93;1690552;81;21135;-63
2022/01/22 06:20:39;;;;;;;9.95;5.12;;;;;;;-3.55;80.35;97276.88;1734967;81;20901;-60
2022/01/22 06:23:06;;;;;;;10.23;5.40;;;;;;;-3.59;80.63;97284.88;1742440;82;20869;-63
2022/01/22 06:25:33;;;;;;;16.02;5.08;;;;;;;-3.59;80.87;97287.50;1775716;78;20980;-60
2022/01/22 06:28:01;;;;;;;11.83;5.12;;;;;;;-3.57;81.21;97292.01;1777224;80;21436;-59
2022/01/22 06:30:29;;;;;;;10.40;4.37;;;;;;;-3.61;81.61;97302.63;1777494;80;21431;-59
2022/01/22 06:32:56;;;;;;;13.83;5.78;;;;;;;-3.65;81.92;97301.47;1753588;80;20936;-63
2022/01/22 06:35:23;;;;;;;13.00;5.62;;;;;;;-3.72;82.37;97302.05;1779638;80;21363;-66
2022/01/22 06:37:51;;;;;;;13.22;4.90;;;;;;;-3.76;82.63;97303.47;1779430;78;21489;-61
2022/01/22 06:43:14;;;;;;;11.50;5.72;;;;;;;-3.76;82.90;97299.55;1738128;81;21117;-63
2022/01/22 06:45:59;;;;;;;10.20;5.37;;;;;;;-3.77;82.86;97301.89;1739966;81;21518;-63
2022/01/22 06:48:26;;;;;;;11.83;5.40;;;;;;;-3.77;83.01;97298.74;1773511;80;21677;-65
2022/01/22 06:51:11;;;;;;;10.95;5.40;;;;;;;-3.73;83.15;97300.44;1778797;80;21547;-63
2022/01/22 06:53:40;;;;;;;12.30;5.42;;;;;;;-3.74;83.01;97307.48;1771423;80;21480;-63
2022/01/22 06:56:10;;;;;;;14.68;5.72;;;;;;;-3.75;83.15;97307.70;1776085;78;21755;-66
2022/01/22 06:58:53;;;;;;;11.20;5.70;;;;;;;-3.68;83.23;97308.44;1781285;78;21027;-61
2022/01/22 07:01:20;;;;;;;20.05;5.50;;;;;;;-3.66;83.41;97310.33;1780696;80;21999;-60
2022/01/22 07:03:54;;;;;;;15.28;5.97;;;;;;;-3.67;83.41;97306.09;1777811;80;21467;-66
2022/01/22 07:06:29;;;;;;;12.75;5.65;;;;;;;-3.66;83.61;97308.52;1754457;80;20908;-66
2022/01/22 07:08:56;;;;;;;13.32;6.15;;;;;;;-3.65;83.65;97310.63;1782029;79;21145;-61
2022/01/22 07:11:24;;;;;;;12.05;5.35;;;;;;;-3.62;83.71;97314.11;1754726;80;21601;-61
2022/01/22 07:13:51;;;;;;;12.58;5.70;;;;;;;-3.63;83.74;97321.68;1774389;80;20979;-61
2022/01/22 07:16:18;;;;;;;12.88;5.70;;;;;;;-3.66;83.66;97319.48;1781894;80;20948;-61
2022/01/22 07:18:45;;;;;;;19.98;5.37;;;;;;;-3.64;83.67;97320.07;1775129;79;21015;-61
2022/01/22 07:21:21;;;;;;;11.15;5.30;;;;;;;-3.66;83.66;97319.48;1756178;80;21070;-61
2022/01/22 07:26:28;;;;;;;10.82;5.30;;;;;;;-3.64;83.64;97325.30;1769745;80;20968;-62
2022/01/22 07:28:57;;;;;;;15.05;5.65;;;;;;;-3.65;83.67;97323.72;1760146;80;20892;-65
2022/01/22 07:31:27;;;;;;;11.55;5.50;;;;;;;-3.64;83.56;97317.45;1713314;83;21479;-61
2022/01/22 07:33:55;;;;;;;13.28;5.87;;;;;;;-3.61;83.57;97319.14;1768979;80;21155;-65
2022/01/22 07:36:22;;;;;;;12.23;5.67;;;;;;;-3.57;83.48;97320.80;1747577;81;20861;-65
2022/01/22 07:38:49;;;;;;;13.28;5.85;;;;;;;-3.55;83.47;97324.00;1767966;80;21427;-59
2022/01/22 07:41:16;;;;;;;12.70;5.90;;;;;;;-3.55;83.54;97313.53;1767908;81;21026;-66
2022/01/22 07:43:48;;;;;;;11.85;5.67;;;;;;;-3.53;83.46;97320.66;1748043;80;21043;-65
2022/01/22 07:46:31;;;;;;;12.00;5.95;;;;;;;-3.54;83.47;97313.33;1760544;81;21199;-63
2022/01/22 07:49:05;;;;;;;13.25;5.58;;;;;;;-3.55;83.69;97327.42;1747328;80;20972;-65
2022/01/22 07:51:33;;;;;;;14.20;8.10;;;;;;;-3.54;83.81;97328.23;1764387;81;21032;-59
2022/01/22 07:54:01;;;;;;;15.08;7.25;;;;;;;-3.52;83.97;97327.50;1767896;80;20984;-65
2022/01/22 07:56:29;;;;;;;13.60;6.42;;;;;;;-3.54;84.09;97330.34;1698214;82;21412;-59
2022/01/22 07:58:59;;;;;;;13.30;5.60;;;;;;;-3.53;84.23;97335.86;1766771;80;21161;-66
2022/01/22 08:01:28;;;;;;;12.15;5.90;;;;;;;-3.53;84.43;97342.41;1748392;80;20932;-60
2022/01/22 08:04:13;;;;;;;10.17;5.50;;;;;;;-3.47;84.31;97336.82;1713048;83;20942;-66
2022/01/22 08:07:00;;;;;;;12.85;5.80;;;;;;;-3.41;84.38;97341.17;1777176;78;21139;-68
2022/01/22 08:09:46;;;;;;;12.78;6.03;;;;;;;-3.34;84.20;97353.69;1775012;80;20932;-66
2022/01/22 08:12:32;;;;;;;;;;;;;;;-3.34;84.01;97347.14;1783187;80;21085;-60
2022/01/22 08:15:00;;;;;;;10.18;5.60;;;;;;;-3.36;84.18;97345.25;1740316;81;20082;-59
2022/01/22 08:17:28;;;;;;;12.55;6.03;;;;;;;-3.39;84.12;97348.30;1780888;78;20984;-59
2022/01/22 08:19:54;;;;;;;13.72;6.22;;;;;;;-3.50;84.43;97347.22;1779289;78;20983;-63
2022/01/22 08:22:40;;;;;;;11.65;5.92;;;;;;;-3.56;84.90;97354.61;1779922;80;27345;-61
2022/01/22 08:25:10;;;;;;;11.70;5.85;;;;;;;-3.58;85.34;97349.33;1779990;80;21766;-66
2022/01/22 08:30:23;;;;;;;10.80;6.42;;;;;;;-3.56;87.10;97353.83;1780606;78;20904;-60
2022/01/22 08:33:09;;;;;;;14.38;6.45;;;;;;;-3.59;88.68;97364.22;1780492;80;20916;-61
2022/01/22 08:38:10;;;;;;;12.78;6.35;;;;;;;-3.55;89.94;97350.18;1777249;80;26858;-67
2022/01/22 08:40:37;;;;;;;14.78;6.83;;;;;;;-3.50;90.09;97343.79;1777663;80;20846;-67
2022/01/22 08:43:04;;;;;;;12.65;6.67;;;;;;;-3.48;90.04;97357.46;1781159;80;20983;-67
2022/01/22 08:45:31;;;;;;;12.00;7.28;;;;;;;-3.43;89.11;97355.00;1780039;80;20931;-64
2022/01/22 08:48:00;;;;;;;12.00;6.78;;;;;;;-3.38;88.72;97355.16;1779057;80;20932;-68
2022/01/22 08:50:27;;;;;;;13.28;7.12;;;;;;;-3.35;88.90;97355.23;1779696;79;21877;-62
2022/01/22 08:52:53;;;;;;;13.00;7.37;;;;;;;-3.33;88.18;97355.30;1779720;80;21022;-60
2022/01/22 08:55:20;;;;;;;14.58;7.35;;;;;;;-3.29;88.22;97363.01;1777008;78;20888;-60
2022/01/22 08:57:49;;;;;;;14.18;7.20;;;;;;;-3.27;87.79;97384.54;1778659;78;21083;-61
2022/01/22 09:00:20;;;;;;;12.82;6.17;;;;;;;-3.27;87.93;97372.75;1774294;80;21023;-64
2022/01/22 09:02:49;;;;;;;12.15;6.78;;;;;;;-3.26;87.69;97365.20;1773850;78;21133;-69
2022/01/22 09:05:31;;;;;;;12.73;6.90;;;;;;;-3.29;87.94;97364.31;1779005;80;20877;-62
2022/01/22 09:08:11;;;;;;;14.18;7.70;;;;;;;-3.30;87.77;97370.59;1776070;80;20900;-68
2022/01/22 09:10:48;;;;;;;12.80;7.20;;;;;;;-3.25;87.92;97373.33;1748137;80;21384;-67
2022/01/22 09:13:24;;;;;;;13.90;7.22;;;;;;;-3.16;87.63;97378.60;1782008;80;21035;-64
2022/01/22 09:16:08;;;;;;;10.30;6.55;;;;;;;-3.11;87.39;97381.34;1777297;78;21121;-67
2022/01/22 09:18:37;;;;;;;10.40;6.37;;;;;;;-3.07;86.74;97385.15;1781692;80;20995;-62
2022/01/22 09:21:04;;;;;;;10.35;6.45;;;;;;;-3.06;86.07;97377.56;1781738;80;20967;-62
2022/01/22 09:23:38;;;;;;;13.90;6.85;;;;;;;-3.13;86.19;97380.77;1779742;80;20972;-66
2022/01/22 09:26:06;;;;;;;11.75;6.47;;;;;;;-3.15;86.41;97388.05;1775229;80;21060;-66
2022/01/22 09:28:35;;;;;;;13.03;7.35;;;;;;;-3.16;86.58;97374.67;1778630;80;21068;-64
2022/01/22 09:33:44;;;;;;;12.95;6.60;;;;;;;-3.09;86.17;97381.95;1746340;79;20971;-64
2022/01/22 09:36:22;;;;;;;9.98;6.22;;;;;;;-3.07;86.06;97393.00;1780792;78;21436;-67
2022/01/22 09:38:51;;;;;;;11.50;5.92;;;;;;;-3.05;86.15;97387.03;1745381;79;20872;-62
2022/01/22 09:41:37;;;;;;;11.03;6.50;;;;;;;-2.99;86.16;97391.39;1799927;77;21074;-61
2022/01/22 09:44:09;;;;;;;11.00;6.33;;;;;;;-2.93;86.04;97389.22;1810111;77;21023;-68
2022/01/22 09:46:54;;;;;;;9.93;6.58;;;;;;;-2.89;85.74;97386.44;1820998;77;20918;-64
2022/01/22 09:49:29;;;;;;;13.15;8.08;;;;;;;-2.87;85.72;97389.64;1809993;78;20958;-65
2022/01/22 09:51:58;;;;;;;12.07;6.83;;;;;;;-2.79;85.82;97394.59;1802201;77;20995;-69
2022/01/22 09:54:43;;;;;;;11.63;6.50;;;;;;;-2.68;85.59;97389.11;1780765;79;21047;-61
2022/01/22 09:57:33;;;;;;;13.43;6.87;;;;;;;-2.61;85.16;97387.20;1688583;83;21686;-65
2022/01/22 10:00:03;;;;;;;12.15;6.97;;;;;;;-2.56;85.15;97390.47;1672233;84;21669;-70
2022/01/22 10:02:49;;;;;;;11.15;7.03;;;;;;;-2.54;85.29;97388.45;1720561;80;20940;-60
2022/01/22 10:05:39;;;;;;;17.57;8.20;;;;;;;-2.46;85.02;97397.30;1778113;79;20982;-61
2022/01/22 10:08:35;;;;;;;14.03;7.83;;;;;;;-2.49;85.24;97395.12;1791797;79;21065;-64
2022/01/22 10:11:25;;;;;;;14.60;8.85;;;;;;;-2.55;85.78;97411.75;1790162;78;21367;-63
2022/01/22 10:14:11;;;;;;;16.02;9.75;;;;;;;-2.56;85.92;97413.56;1781910;80;20915;-62
2022/01/22 10:16:39;;;;;;;13.68;8.63;;;;;;;-2.52;85.95;97419.95;1771160;78;20971;-62
2022/01/22 10:19:20;;;;;;;12.53;8.33;;;;;;;-2.47;85.87;97412.77;1753582;81;21022;-62
2022/01/22 10:22:02;;;;;;;14.38;8.05;;;;;;;-2.45;85.76;97423.83;1749462;80;21111;-61
2022/01/22 10:24:42;;;;;;;14.73;8.80;;;;;;;-2.43;85.62;97420.47;1787025;79;20955;-61
2022/01/22 10:27:35;;;;;;;14.78;9.30;;;;;;;-2.46;85.87;97433.52;1773883;79;20881;-63
2022/01/22 10:30:14;;;;;;;12.75;8.58;;;;;;;-2.50;86.03;97426.31;1774104;79;21376;-67
2022/01/22 10:32:48;;;;;;;14.58;7.90;;;;;;;-2.53;86.15;97428.05;1807995;77;20983;-63
2022/01/22 10:35:32;;;;;;;11.80;7.25;;;;;;;-2.51;86.25;97433.88;1757071;81;21061;-61
2022/01/22 10:38:18;;;;;;;11.20;6.60;;;;;;;-2.51;86.32;97433.88;1714754;82;20948;-67
2022/01/22 10:40:49;;;;;;;8.43;5.78;;;;;;;-2.51;86.37;97435.19;1795331;79;21467;-61
2022/01/22 10:46:12;;;;;;;8.58;5.50;;;;;;;-2.56;86.40;97433.73;1782617;79;21052;-65
2022/01/22 10:49:04;;;;;;;8.50;5.42;;;;;;;-2.52;86.20;97433.07;1757196;81;21098;-68
2022/01/22 10:51:31;;;;;;;10.90;5.40;;;;;;;-2.45;86.04;97430.39;1770180;78;20971;-62
2022/01/22 10:54:05;;;;;;;6.87;4.45;;;;;;;-2.37;86.07;97423.00;1812906;77;22032;-61
2022/01/22 10:56:34;;;;;;;7.80;5.17;;;;;;;-2.26;85.81;97435.36;1783127;78;21403;-69
2022/01/22 10:59:09;;;;;;;7.72;4.60;;;;;;;-2.14;85.59;97439.34;1785584;79;20921;-63
2022/01/22 11:01:55;;;;;;;7.53;4.33;;;;;;;-2.08;84.73;97439.77;1785741;78;21127;-68
2022/01/22 11:04:36;;;;;;;7.37;4.30;;;;;;;-2.08;84.67;97438.46;1785396;78;20903;-61
2022/01/22 11:07:08;;;;;;;8.20;4.40;;;;;;;-2.01;83.89;97437.05;1775402;79;21648;-63
2022/01/22 11:09:36;;;;;;;6.70;3.92;;;;;;;-2.03;83.23;97453.03;1791062;79;20948;-63
2022/01/22 11:12:06;;;;;;;7.50;4.00;;;;;;;-2.09;82.23;97453.91;1786855;78;21307;-68
2022/01/22 11:14:37;;;;;;;5.92;3.77;;;;;;;-2.15;82.04;97453.50;1779258;79;21121;-74
2022/01/22 11:17:06;;;;;;;7.03;4.30;;;;;;;-2.16;82.32;97458.44;1752532;80;20924;-66
2022/01/22 11:19:36;;;;;;;9.40;4.60;;;;;;;-2.13;82.08;97455.38;1805328;77;20966;-62
2022/01/22 11:22:11;;;;;;;6.47;3.90;;;;;;;-2.10;82.00;97457.56;1783276;79;20892;-63
2022/01/22 11:24:41;;;;;;;9.38;4.08;;;;;;;-2.02;81.74;97466.42;1784901;79;20927;-65
2022/01/22 11:27:12;;;;;;;8.50;4.25;;;;;;;-1.98;81.37;97467.60;1783081;80;21435;-65
2022/01/22 11:29:58;;;;;;;6.45;4.00;;;;;;;-2.03;81.39;97475.34;1776061;79;20880;-65
2022/01/22 11:32:32;;;;;;;8.20;4.50;;;;;;;-2.07;81.52;97486.78;1793634;77;20833;-61
2022/01/22 11:35:02;;;;;;;8.63;5.10;;;;;;;-2.11;81.63;97488.76;1749650;81;21035;-68
2022/01/22 11:37:43;;;;;;;5.90;3.95;;;;;;;-2.10;81.83;97508.74;1803965;77;20933;-66
2022/01/22 11:40:13;;;;;;;5.55;3.85;;;;;;;-2.12;82.12;97508.16;1807867;77;21111;-73
2022/01/22 11:43:07;;;;;;;9.98;4.10;;;;;;;-2.11;82.40;97509.75;1783469;78;20876;-61
2022/01/22 11:45:43;;;;;;;13.05;4.20;;;;;;;-2.01;82.09;97510.03;1779125;79;21447;-64
2022/01/22 11:48:24;;;;;;;9.63;4.78;;;;;;;-1.88;81.37;97521.66;1782426;79;20928;-68
2022/01/22 11:51:17;;;;;;;10.43;4.62;;;;;;;-1.81;80.15;97513.68;1787308;79;20915;-70
2022/01/22 11:53:55;;;;;;;8.00;4.45;;;;;;;-1.80;79.79;97512.16;1767667;79;21090;-61
2022/01/22 11:56:27;;;;;;;8.00;4.60;;;;;;;-1.78;79.61;97516.67;1784178;80;20852;-68
2022/01/22 11:59:04;;;;;;;11.08;4.60;;;;;;;-1.65;79.09;97519.10;1753025;80;20927;-68
2022/01/22 12:01:52;;;;;;;8.70;5.12;;;;;;;-1.41;78.77;97525.22;1754061;81;20987;-63
2022/01/22 12:04:21;;;;;;;10.13;5.35;;;;;;;-1.10;78.26;97528.07;1787598;79;20994;-61
2022/01/22 12:07:07;;;;;;;6.37;4.25;;;;;;;-0.63;77.52;97515.21;1783524;80;21134;-74
2022/01/22 12:09:54;;;;;;;6.92;4.45;;;;;;;-0.21;76.36;97519.25;1774694;78;20995;-63
2022/01/22 12:15:47;;;;;;;5.85;3.30;;;;;;;0.48;71.28;97527.92;1788780;79;20864;-68
2022/01/22 12:18:17;;;;;;;5.90;3.45;;;;;;;0.43;69.20;97535.73;1784315;79;20951;-67
2022/01/22 12:23:33;;;;;;;4.87;2.83;;;;;;;-0.23;68.47;97546.84;1753612;81;21043;-68
2022/01/22 12:26:01;;;;;;;3.10;1.75;;;;;;;-0.64;70.46;97575.95;1798419;77;21403;-67
2022/01/22 12:28:45;;;;;;;5.72;1.85;;;;;;;-1.24;75.76;97579.23;1783664;80;21605;-67
2022/01/22 12:31:16;;;;;;;2.70;1.45;;;;;;;-1.76;78.00;97578.14;1808839;77;20915;-67
2022/01/22 12:33:53;;;;;;;3.58;1.50;;;;;;;-2.17;78.91;97581.49;1768740;79;21458;-69
2022/01/22 12:36:36;;;;;;;2.62;1.20;;;;;;;-2.42;79.77;97580.73;1802272;76;20904;-60
2022/01/22 12:39:09;;;;;;;3.10;1.40;;;;;;;-2.63;80.56;97582.47;1783896;79;20908;-65
2022/01/22 12:44:33;;;;;;;2.12;1.65;;;;;;;-2.69;80.91;97585.45;1813521;77;21010;-67
2022/01/22 12:47:02;;;;;;;2.90;2.10;;;;;;;-2.61;80.86;97588.29;1801342;77;21114;-68
2022/01/22 12:49:30;;;;;;;4.55;2.50;;;;;;;-2.59;80.72;97592.30;1777798;79;20872;-76
2022/01/22 12:52:04;;;;;;;5.33;2.40;;;;;;;-2.49;80.72;97605.73;1756323;80;20976;-69
2022/01/22 12:54:42;;;;;;;4.50;2.42;;;;;;;-2.27;80.62;97606.92;1794766;79;21008;-62
2022/01/22 12:57:09;;;;;;;7.33;3.00;;;;;;;-1.88;79.83;97606.97;1784602;79;20864;-71
2022/01/22 13:00:08;;;;;;;5.15;2.92;;;;;;;-1.79;79.16;97622.70;1799875;79;21059;-68
2022/01/22 13:02:51;;;;;;;5.45;2.87;;;;;;;-1.82;79.04;97616.61;1778557;80;21442;-63
2022/01/22 13:05:19;;;;;;;6.70;3.47;;;;;;;-1.78;78.66;97629.58;1780688;79;20919;-63
2022/01/22 13:08:00;;;;;;;5.92;3.62;;;;;;;-1.61;78.42;97635.03;1777514;80;20976;-72
2022/01/22 13:10:44;;;;;;;8.70;4.30;;;;;;;-1.37;78.27;97637.24;1735577;81;21463;-65
2022/01/22 13:13:17;;;;;;;6.20;3.60;;;;;;;-1.11;77.20;97642.94;1795146;78;21045;-68
2022/01/22 13:15:44;;;;;;;6.03;3.87;;;;;;;-0.96;76.56;97645.94;1781993;80;20932;-63
2022/01/22 13:18:12;;;;;;;6.05;4.03;;;;;;;-0.96;74.67;97647.75;1797087;79;20892;-70
2022/01/22 13:20:41;;;;;;;5.58;3.60;;;;;;;-1.02;74.73;97659.19;1782591;79;20880;-72
2022/01/22 13:23:17;;;;;;;6.50;3.80;;;;;;;-1.05;74.80;97669.63;1790476;79;21531;-66
2022/01/22 13:25:44;;;;;;;6.83;3.75;;;;;;;-1.07;74.15;97674.31;1782068;80;21118;-68
2022/01/22 13:28:14;;;;;;;6.15;3.60;;;;;;;-1.09;74.15;97674.25;1776984;79;21431;-65
2022/01/22 13:30:48;;;;;;;7.22;3.80;;;;;;;-1.12;72.42;97672.06;1782477;79;20907;-64
2022/01/22 13:33:21;;;;;;;5.55;3.77;;;;;;;-1.15;72.41;97685.64;1801396;78;20926;-63
2022/01/22 13:45:02;;;;;;;4.37;3.00;;;;;;;-1.22;70.38;97692.81;1783520;80;20984;-64
2022/01/22 13:49:18;;;;;;;4.25;3.17;;;;;;;-1.67;70.46;97716.80;1753411;80;21536;-66
2022/01/22 13:51:45;;;;;;;5.78;3.45;;;;;;;-1.76;71.00;97716.80;1798173;77;21115;-68
2022/01/22 13:54:13;;;;;;;4.70;2.87;;;;;;;-1.84;71.22;97724.17;1785462;78;20911;-67